Terminal Aerodrome Forecast
Issued by NWS

Home | Current Version | Previous Version | Graphics & Text | Print | Product List | Glossary On
Versions: 1 2 3 4 5 6 7 8 9 10 11 12 13 14 15 16 17 18
000
FTUS43 KMPX 250536
TAFAXN
TAF
KAXN 250536Z 2506/2606 19012KT 1SM BR OVC003
     FM250900 23013G20KT 5SM BR BKN007
     FM251200 29018G28KT P6SM VCSH SCT007 OVC015
     FM251800 31025G37KT P6SM BKN025
     FM260100 32016G25KT P6SM SCT100=

USA.gov is the U.S. government's official web portal to all federal, state and local government web resources and services.